Latest Weather Observations for Casterton

IDV60801

Issued at 2:35 pm EST Wednesday 30 July 2014 (issued every 30 minutes, with the page automatically refreshed every 10 minutes)

About weather observations | Map of weather stations | Latest weather observations for VIC | Other Formats
Station Details ID: 090182 Name: CASTERTON Lat: -37.58 Lon: 141.33 Height: 130.6 m
Data from the previous 72 hours. | See also: Recent months at Casterton
Date/Time
EST
Temp
°C
App
Temp
°C
Dew
Point
Rel
Hum
%
Delta-T
°C
Wind Press
QNH
hPa
Press
MSL
hPa
Rain
since 9 am
mm
Dir
 
Spd
km/h
Gust
km/h
Spd
kts
Gust
kts
30/02:30pm 14.7 10.0 12.0 84 1.5 WNW 28 46 15 25 1009.4 - 2.0
30/02:27pm 14.5 9.7 11.6 83 1.6 NW 28 46 15 25 1009.4 - 2.0
30/02:00pm 14.1 10.0 13.8 98 0.2 NW 28 41 15 22 1009.8 - 2.0
30/01:30pm 13.6 8.9 13.3 98 0.2 WNW 30 44 16 24 1010.1 - 2.0
30/01:08pm 13.4 8.3 13.1 98 0.2 WNW 32 52 17 28 1010.6 - 1.8
30/01:00pm 14.4 10.3 13.9 97 0.3 NW 28 44 15 24 1010.1 - 0.8
30/12:42pm 14.6 9.8 14.1 97 0.3 NW 32 50 17 27 1010.4 - 0.8
30/12:30pm 14.7 10.4 14.4 98 0.2 NW 30 44 16 24 1010.6 - 0.8
30/12:00pm 13.9 10.1 13.6 98 0.2 NW 26 35 14 19 1011.3 1011.6 0.8
30/11:30am 13.8 9.6 13.5 98 0.2 WNW 28 37 15 20 1011.5 - 0.8
30/11:00am 13.1 8.3 12.9 99 0.1 NW 30 44 16 24 1012.0 - 0.8
30/10:30am 13.5 9.6 13.2 98 0.2 NW 26 37 14 20 1011.7 - 0.2
30/10:00am 13.1 9.1 12.9 99 0.1 NW 26 35 14 19 1012.0 - 0.2
30/09:30am 12.9 8.8 12.6 98 0.2 WNW 26 43 14 23 1012.0 - 0.0
30/09:00am 12.4 8.9 12.2 99 0.1 NW 22 32 12 17 1012.0 1012.3 2.4
30/08:30am 12.3 8.4 12.1 99 0.1 NW 24 33 13 18 1011.7 - 2.2
30/08:00am 12.0 7.6 11.7 98 0.2 NW 26 35 14 19 1011.6 - 2.2
30/07:30am 11.7 8.0 11.4 98 0.2 NW 22 33 12 18 1011.3 - 2.2
30/07:00am 11.7 7.2 11.4 98 0.2 NW 26 35 14 19 1011.4 - 2.2
30/06:30am 11.5 8.1 11.3 99 0.1 NW 20 32 11 17 1011.3 - 2.0
30/06:00am 11.9 8.3 11.7 99 0.1 NW 22 30 12 16 1011.3 1011.6 2.0
30/05:30am 12.0 8.8 11.8 99 0.1 NW 20 28 11 15 1011.2 - 2.0
30/05:00am 12.4 8.1 12.1 98 0.2 NW 26 35 14 19 1011.0 - 1.8
30/04:30am 12.0 8.7 11.7 98 0.2 NW 20 28 11 15 1011.0 - 1.8
30/04:00am 11.9 8.6 11.6 98 0.2 NW 20 28 11 15 1011.2 - 1.8
30/03:30am 11.9 8.6 11.6 98 0.2 NW 20 28 11 15 1011.5 - 1.8
30/03:00am 12.0 8.7 11.7 98 0.2 NW 20 28 11 15 1011.7 1012.0 1.8
30/02:30am 11.9 8.8 11.6 98 0.2 NW 19 24 10 13 1011.9 - 1.8
30/02:00am 12.2 9.0 11.9 98 0.2 WNW 20 30 11 16 1012.2 - 1.8
30/01:30am 12.4 9.4 12.1 98 0.2 WNW 19 32 10 17 1012.1 - 1.8
30/01:00am 12.5 8.6 12.2 98 0.2 WNW 24 41 13 22 1012.0 - 1.8
30/12:30am 12.6 8.8 12.3 98 0.2 WNW 24 33 13 18 1011.9 - 1.8
30/12:00am 12.7 8.5 12.4 98 0.2 WNW 26 39 14 21 1011.6 1011.9 1.8
 
Date/Time
EST
Temp
°C
App
Temp
°C
Dew
Point
Rel
Hum
%
Delta-T
°C
Wind Press
QNH
hPa
Press
MSL
hPa
Rain
since 9 am
mm
Dir
 
Spd
km/h
Gust
km/h
Spd
kts
Gust
kts
29/11:48pm 13.0 8.5 12.7 98 0.2 NW 28 56 15 30 1011.5 - 1.8
29/11:30pm 13.2 9.2 12.9 98 0.2 WNW 26 43 14 23 1011.6 - 1.8
29/11:00pm 13.3 9.2 12.8 97 0.3 WNW 26 35 14 19 1011.4 - 1.8
29/10:46pm 13.3 8.9 13.0 98 0.2 WNW 28 46 15 25 1011.3 - 1.8
29/10:30pm 13.2 9.9 12.9 98 0.2 WNW 22 37 12 20 1011.3 - 1.8
29/10:00pm 13.3 8.5 13.0 98 0.2 NW 30 44 16 24 1011.2 - 1.8
29/09:30pm 13.3 10.1 13.0 98 0.2 WNW 22 32 12 17 1010.9 - 1.8
29/09:00pm 13.1 9.4 12.8 98 0.2 WNW 24 37 13 20 1010.6 1010.9 1.8
29/08:36pm 12.9 8.4 12.6 98 0.2 WNW 28 46 15 25 1010.5 - 1.8
29/08:30pm 12.9 9.6 12.7 99 0.1 W 22 37 12 20 1010.6 - 1.8
29/08:00pm 13.0 8.1 12.7 98 0.2 NW 30 48 16 26 1010.3 - 1.2
29/07:56pm 13.0 8.1 12.7 98 0.2 NW 30 48 16 26 1010.1 - 1.2
29/07:30pm 12.9 8.0 12.6 98 0.2 WNW 30 46 16 25 1010.0 - 1.2
29/07:12pm 13.1 8.3 12.8 98 0.2 WNW 30 50 16 27 1009.9 - 1.2
29/07:00pm 13.0 8.9 12.7 98 0.2 NW 26 41 14 22 1009.6 - 1.2
29/06:30pm 13.2 8.4 12.9 98 0.2 WNW 30 48 16 26 1009.6 - 1.2
29/06:17pm 13.9 9.1 12.8 93 0.6 NW 30 50 16 27 1009.2 - 1.0
29/06:00pm 13.9 9.0 12.5 91 0.8 NW 30 41 16 22 1009.1 1009.4 1.0
29/05:49pm 13.9 9.4 12.5 91 0.8 NW 28 46 15 25 1009.0 - 1.0
29/05:30pm 14.0 9.1 12.4 90 0.9 WNW 30 44 16 24 1009.0 - 1.0
29/05:00pm 14.1 9.3 13.0 93 0.6 NW 30 46 16 25 1008.6 - 1.0
29/04:30pm 14.1 9.8 13.3 95 0.4 WNW 28 41 15 22 1008.6 - 1.0
29/04:00pm 14.4 10.5 13.3 93 0.6 WNW 26 37 14 20 1008.3 - 1.0
29/03:30pm 14.4 10.5 13.4 94 0.6 WNW 26 39 14 21 1008.0 - 1.0
29/03:00pm 14.8 9.6 12.7 87 1.2 WNW 32 50 17 27 1007.7 1008.0 1.0
29/02:30pm 14.7 9.0 12.9 89 1.0 WNW 35 56 19 30 1007.5 - 1.0
29/02:05pm 15.0 9.5 13.5 91 0.8 NW 35 54 19 29 1007.2 - 1.0
29/02:00pm 14.7 8.8 13.6 93 0.6 WNW 37 52 20 28 1007.3 - 1.0
29/01:32pm 14.2 8.7 13.6 96 0.3 WNW 35 56 19 30 1007.4 - 1.0
29/01:30pm 14.4 9.4 14.1 98 0.2 WNW 33 50 18 27 1007.4 - 1.0
29/01:00pm 13.3 6.5 13.0 98 0.2 WNW 41 67 22 36 1007.6 - 1.0
29/12:44pm 13.6 8.6 13.3 98 0.2 WNW 32 50 17 27 1007.7 - 0.6
29/12:30pm 14.6 8.7 13.6 94 0.6 WNW 37 52 20 28 1007.6 - 0.4
29/12:00pm 14.2 8.0 13.9 98 0.2 NW 39 78 21 42 1008.0 1008.3 0.4
29/11:51am 13.7 7.0 13.4 98 0.2 NW 41 78 22 42 1008.1 - 0.4
29/11:31am 13.7 7.4 13.4 98 0.2 NW 39 57 21 31 1007.9 - 0.2
29/11:30am 13.9 8.0 13.6 98 0.2 NW 37 54 20 29 1008.0 - 0.2
29/11:00am 14.0 8.9 13.7 98 0.2 NW 33 52 18 28 1008.4 - 0.2
29/10:58am 13.9 8.8 13.6 98 0.2 NW 33 52 18 28 1008.4 - 0.2
29/10:30am 13.5 8.8 13.2 98 0.2 NW 30 43 16 23 1008.4 - 0.2
29/10:17am 13.1 7.7 12.8 98 0.2 NW 33 52 18 28 1008.5 - 0.2
29/10:00am 12.9 7.4 12.6 98 0.2 NW 33 48 18 26 1008.1 - 0.2
29/09:30am 12.7 7.4 12.4 98 0.2 NW 32 50 17 27 1008.2 - 0.2
29/09:21am 12.5 7.5 12.3 99 0.1 NW 30 50 16 27 1008.1 - 0.2
29/09:00am 12.3 6.8 12.0 98 0.2 NW 32 46 17 25 1008.0 1008.3 0.8
29/08:40am 12.4 7.4 12.1 98 0.2 NW 30 48 16 26 1007.8 - 0.8
29/08:30am 12.3 6.8 12.0 98 0.2 NW 32 46 17 25 1007.8 - 0.8
29/08:00am 12.0 6.5 11.7 98 0.2 NNW 32 44 17 24 1007.8 - 0.6
29/07:30am 11.8 7.3 11.5 98 0.2 NW 26 35 14 19 1008.1 - 0.6
29/07:00am 11.5 6.2 11.2 98 0.2 NNW 30 41 16 22 1007.9 - 0.6
29/06:42am 11.5 6.2 11.2 98 0.2 NW 30 48 16 26 1007.9 - 0.6
29/06:30am 11.6 6.7 11.3 98 0.2 NW 28 41 15 22 1008.0 - 0.6
29/06:04am 11.7 6.1 11.4 98 0.2 NW 32 50 17 27 1007.7 - 0.4
29/06:00am 11.7 6.4 11.4 98 0.2 NW 30 43 16 23 1007.8 1008.1 0.4
29/05:30am 11.9 6.1 11.6 98 0.2 NNW 33 57 18 31 1007.3 - 0.2
29/05:07am 12.2 6.3 11.3 94 0.5 NW 33 52 18 28 1007.5 - 0.0
29/05:00am 12.3 5.6 11.0 92 0.7 NNW 37 52 20 28 1007.4 - 0.0
29/04:30am 12.3 6.0 11.0 92 0.7 NNW 35 54 19 29 1007.6 - 0.0
29/04:03am 12.4 6.5 11.1 92 0.7 NNW 33 56 18 30 1007.9 - 0.0
29/04:00am 12.4 6.5 11.0 91 0.7 NNW 33 50 18 27 1007.8 - 0.0
29/03:31am 12.3 6.9 10.9 91 0.7 NW 30 48 16 26 1008.0 - 0.0
29/03:30am 12.3 6.9 11.0 92 0.7 NW 30 41 16 22 1008.0 - 0.0
29/03:06am 12.3 6.3 10.9 91 0.7 NNW 33 56 18 30 1007.9 - 0.0
29/03:00am 12.3 6.4 11.0 92 0.7 NW 33 50 18 27 1008.3 1008.6 0.0
29/02:30am 12.5 6.2 11.1 91 0.7 NW 35 56 19 30 1008.6 - 0.0
29/02:00am 12.6 5.8 10.8 89 0.9 NW 37 57 20 31 1008.7 - 0.0
29/01:30am 12.6 6.8 10.8 89 0.9 NNW 32 54 17 29 1008.9 - 0.0
29/01:19am 12.6 6.6 10.8 89 0.9 NW 33 52 18 28 1009.1 - 0.0
29/01:00am 12.5 6.7 10.9 90 0.8 NNW 32 48 17 26 1009.2 - 0.0
29/12:30am 12.3 7.0 11.4 94 0.5 NW 30 50 16 27 1009.9 - 0.0
29/12:21am 12.3 7.0 11.4 94 0.5 NNW 30 50 16 27 1009.7 - 0.0
29/12:00am 12.1 7.3 11.8 98 0.2 NW 28 41 15 22 1010.1 1010.4 0.0
 
Date/Time
EST
Temp
°C
App
Temp
°C
Dew
Point
Rel
Hum
%
Delta-T
°C
Wind Press
QNH
hPa
Press
MSL
hPa
Rain
since 9 am
mm
Dir
 
Spd
km/h
Gust
km/h
Spd
kts
Gust
kts
28/11:30pm 12.4 7.1 11.1 92 0.7 NW 30 46 16 25 1010.6 - 0.0
28/11:00pm 12.5 7.4 10.6 88 1.0 NW 28 43 15 23 1010.9 - 0.0
28/10:30pm 12.1 7.7 10.3 89 0.9 NNW 24 44 13 24 1011.2 - 0.0
28/10:00pm 12.0 7.1 10.1 88 1.0 NNW 26 41 14 22 1011.3 - 0.0
28/09:30pm 12.3 7.0 10.0 86 1.2 NNW 28 41 15 22 1011.3 - 0.0
28/09:00pm 12.1 6.8 9.8 86 1.2 NNW 28 39 15 21 1011.5 1011.8 0.0
28/08:47pm 12.3 7.0 10.0 86 1.2 NNW 28 46 15 25 1011.5 - 0.0
28/08:30pm 12.5 7.9 9.5 82 1.5 NNW 24 35 13 19 1011.5 - 0.0
28/08:00pm 12.2 7.5 9.2 82 1.5 NNW 24 39 13 21 1011.4 - 0.0
28/07:30pm 12.2 7.5 9.4 83 1.4 NNW 24 35 13 19 1011.5 - 0.0
28/07:00pm 12.3 8.4 9.5 83 1.4 NNW 20 35 11 19 1011.5 - 0.0
28/06:30pm 12.4 8.6 9.2 81 1.6 NNW 19 28 10 15 1011.6 - 0.0
28/06:00pm 12.6 8.8 9.1 79 1.8 NNW 19 26 10 14 1011.7 1012.0 0.0
28/05:30pm 13.3 9.0 9.2 76 2.1 NNW 22 32 12 17 1011.2 - 0.0
28/05:00pm 13.8 8.7 9.3 74 2.3 NW 26 35 14 19 1011.2 - 0.0
28/04:30pm 14.1 8.7 9.5 74 2.4 NW 28 43 15 23 1011.2 - 0.0
28/04:17pm 14.5 9.1 9.5 72 2.6 NW 28 46 15 25 1011.3 - 0.0
28/04:00pm 14.2 8.8 9.4 73 2.5 NW 28 41 15 22 1011.4 - 0.0
28/03:30pm 15.0 9.6 9.6 70 2.8 NW 28 43 15 23 1011.5 - 0.0
28/03:00pm 15.4 10.1 9.7 69 3.0 NW 28 41 15 22 1011.6 1011.9 0.0
28/02:30pm 14.8 8.8 10.0 73 2.5 NW 32 46 17 25 1011.9 - 0.0
28/02:00pm 14.9 9.2 9.7 71 2.7 NW 30 44 16 24 1012.0 - 0.0
28/01:30pm 14.9 9.8 10.7 76 2.2 NW 28 43 15 23 1012.6 - 0.0
28/01:00pm 14.6 10.1 10.0 74 2.4 NW 24 37 13 20 1012.8 - 0.0
28/12:30pm 15.4 10.6 11.8 79 2.0 NW 28 39 15 21 1013.1 - 0.0
28/12:00pm 14.2 9.6 12.2 88 1.1 NW 28 39 15 21 1013.9 1014.2 0.0
28/11:30am 13.3 9.9 12.4 94 0.5 NW 22 32 12 17 1014.2 - 0.0
28/11:00am 13.9 10.0 13.3 96 0.3 NW 26 39 14 21 1014.4 - 0.0
28/10:30am 12.2 9.9 11.9 98 0.2 NNW 15 20 8 11 1014.6 - 0.0
28/10:00am 12.1 9.4 11.8 98 0.2 NNW 17 24 9 13 1014.5 - 0.0
28/09:30am 11.0 7.6 10.7 98 0.2 N 19 24 10 13 1014.4 - 0.0
28/09:00am 10.6 7.5 10.3 98 0.2 N 17 20 9 11 1014.3 1014.6 0.0
28/08:30am 9.8 6.1 9.5 98 0.2 N 19 24 10 13 1014.3 - 0.0
28/08:00am 9.1 6.0 8.8 98 0.1 N 15 20 8 11 1014.4 - 0.0
28/07:30am 9.8 6.9 9.5 98 0.2 NNW 15 20 8 11 1014.5 - 0.0
28/07:00am 8.7 5.8 8.3 97 0.2 NNW 13 20 7 11 1014.4 - 0.0
28/06:30am 8.9 5.6 8.0 94 0.4 N 15 22 8 12 1014.2 - 0.0
28/06:00am 9.8 5.7 7.9 88 0.9 NNW 19 24 10 13 1014.3 1014.6 0.0
28/05:30am 10.1 5.9 7.5 84 1.3 NNW 19 28 10 15 1014.4 - 0.0
28/05:00am 9.7 5.8 7.1 84 1.2 NNW 17 24 9 13 1014.5 - 0.0
28/04:30am 9.6 5.6 6.5 81 1.5 NNW 17 22 9 12 1014.6 - 0.0
28/04:00am 10.1 6.0 6.4 78 1.7 NNW 17 24 9 13 1014.7 - 0.0
28/03:30am 10.4 6.0 6.4 76 1.9 NNW 19 26 10 14 1014.8 - 0.0
28/03:00am 10.8 6.4 6.6 75 2.0 NNW 19 28 10 15 1015.0 1015.3 0.0
28/02:30am 10.6 6.2 6.6 76 1.9 NNW 19 24 10 13 1015.1 - 0.0
28/02:00am 10.8 6.4 6.7 76 1.9 NNW 19 26 10 14 1015.3 - 0.0
28/01:30am 10.8 6.4 6.7 76 1.9 NNW 19 26 10 14 1015.5 - 0.0
28/01:00am 11.0 7.1 6.9 76 2.0 NNW 17 20 9 11 1015.9 - 0.0
28/12:30am 10.6 6.3 7.1 79 1.7 N 19 24 10 13 1016.1 - 0.0
28/12:00am 10.1 6.2 7.3 83 1.3 N 17 22 9 12 1016.2 1016.5 0.0
 
Date/Time
EST
Temp
°C
App
Temp
°C
Dew
Point
Rel
Hum
%
Delta-T
°C
Wind Press
QNH
hPa
Press
MSL
hPa
Rain
since 9 am
mm
Dir
 
Spd
km/h
Gust
km/h
Spd
kts
Gust
kts
27/11:30pm 9.8 6.3 7.4 85 1.1 N 15 20 8 11 1016.4 - 0.0
27/11:00pm 9.9 6.1 7.7 86 1.1 N 17 20 9 11 1016.8 - 0.0
27/10:30pm 10.3 6.5 7.7 84 1.3 N 17 22 9 12 1017.1 - 0.0
27/10:00pm 10.2 6.4 7.6 84 1.3 N 17 24 9 13 1017.3 - 0.0
27/09:30pm 11.0 6.9 7.7 80 1.6 N 19 28 10 15 1017.4 - 0.0
27/09:00pm 11.4 7.1 7.9 79 1.7 N 20 28 11 15 1017.3 1017.6 0.0
27/08:30pm 11.3 7.6 7.8 79 1.7 N 17 24 9 13 1017.1 - 0.0
27/08:00pm 11.4 7.7 7.9 79 1.7 N 17 26 9 14 1017.1 - 0.0
27/07:30pm 11.3 7.6 7.8 79 1.7 N 17 28 9 15 1017.5 - 0.0
27/07:00pm 11.6 8.4 8.3 80 1.6 N 15 20 8 11 1017.8 - 0.0
27/06:30pm 10.7 7.4 8.1 84 1.3 N 15 17 8 9 1018.0 - 0.0
27/06:00pm 12.0 8.4 8.5 79 1.7 N 17 24 9 13 1017.9 1018.2 0.0
27/05:30pm 12.9 9.5 9.0 77 2.0 N 17 26 9 14 1017.7 - 0.0
27/05:00pm 13.7 9.9 9.0 73 2.4 NNW 19 26 10 14 1017.6 - 0.0
27/04:30pm 14.4 10.5 9.6 73 2.5 NNW 20 28 11 15 1017.6 - 0.0
27/04:00pm 14.7 10.8 9.5 71 2.7 NNW 20 32 11 17 1017.6 - 0.0
27/03:30pm 15.0 10.7 9.4 69 2.9 NNW 22 35 12 19 1017.7 - 0.0
27/03:00pm 14.5 9.8 9.3 71 2.7 NNW 24 37 13 20 1017.8 1018.1 0.0

Other Formats:

Comma delimited format used in spreadsheet applications
http://www.bom.gov.au/fwo/IDV60801/IDV60801.95825.axf

JavaScript Object Notation format (JSON) in row-major order
http://www.bom.gov.au/fwo/IDV60801/IDV60801.95825.json